Time;durP1;ratioP1;P1;durP2;ratioP2;P2;SDS_P1;SDS_P2;PMS_P1;PMS_P2;Temp;Humidity;BMP_temperature;BMP_pressure;BME280_temperature;BME280_humidity;BME280_pressure;Samples;Min_cycle;Max_cycle;Signal;HPM_P1;HPM_P2
2022/03/11 00:01:07;;;;;;;15.43;9.43;;;4.70;99.90;;;;;;5024024;28;20056;-74
2022/03/11 00:03:33;;;;;;;17.58;9.65;;;4.70;99.90;;;;;;5040764;28;20123;-73
2022/03/11 00:05:59;;;;;;;15.65;9.48;;;4.60;99.90;;;;;;5058388;28;20087;-72
2022/03/11 00:08:24;;;;;;;14.35;9.23;;;4.60;99.90;;;;;;5058582;28;20044;-74
2022/03/11 00:10:50;;;;;;;16.95;9.82;;;4.60;99.90;;;;;;5078291;28;20051;-71
2022/03/11 00:13:16;;;;;;;14.02;9.07;;;4.60;99.90;;;;;;5078113;28;20036;-72
2022/03/11 00:15:42;;;;;;;15.00;9.25;;;4.60;99.90;;;;;;5060769;28;20040;-73
2022/03/11 00:18:07;;;;;;;14.85;9.10;;;4.80;99.90;;;;;;5043690;28;20455;-73
2022/03/11 00:20:33;;;;;;;17.10;9.35;;;4.60;99.90;;;;;;5060236;28;20119;-73
2022/03/11 00:22:59;;;;;;;17.23;9.23;;;4.50;99.90;;;;;;5060530;28;20060;-73
2022/03/11 00:25:26;;;;;;;19.85;8.75;;;4.50;99.90;;;;;;5077914;28;20045;-74
2022/03/11 00:27:52;;;;;;;17.30;9.25;;;4.40;99.90;;;;;;5077553;28;20091;-72
2022/03/11 00:30:18;;;;;;;14.43;9.20;;;4.50;99.90;;;;;;5077626;28;20064;-72
2022/03/11 00:32:45;;;;;;;13.18;8.05;;;4.30;99.90;;;;;;5077353;28;20040;-72
2022/03/11 00:35:11;;;;;;;16.17;8.30;;;4.20;99.90;;;;;;5060327;28;20131;-75
2022/03/11 00:37:39;;;;;;;16.70;9.40;;;4.20;99.90;;;;;;5076414;28;20131;-73
2022/03/11 00:40:05;;;;;;;13.95;8.23;;;4.10;99.90;;;;;;5057521;28;20091;-74
2022/03/11 00:42:31;;;;;;;18.13;8.77;;;4.10;99.90;;;;;;5057356;28;20053;-72
2022/03/11 00:44:57;;;;;;;15.90;9.07;;;4.10;99.90;;;;;;5057167;28;20098;-73
2022/03/11 00:47:22;;;;;;;14.48;9.43;;;4.00;99.90;;;;;;5038898;28;20497;-73
2022/03/11 00:49:48;;;;;;;13.93;9.45;;;3.90;99.90;;;;;;5039273;28;20201;-74
2022/03/11 00:52:13;;;;;;;14.93;9.23;;;3.90;99.90;;;;;;5056755;28;20455;-72
2022/03/11 00:54:39;;;;;;;17.10;8.95;;;3.90;99.90;;;;;;5039728;28;20082;-72
2022/03/11 00:57:04;;;;;;;17.13;9.60;;;3.80;99.90;;;;;;5039368;28;20131;-72
2022/03/11 00:59:30;;;;;;;17.17;9.07;;;3.80;99.90;;;;;;5057022;28;20357;-73
2022/03/11 01:01:56;;;;;;;16.30;9.50;;;3.70;99.90;;;;;;5056924;28;20049;-73
2022/03/11 01:04:21;;;;;;;15.05;9.02;;;3.80;99.90;;;;;;5057080;28;20045;-73
2022/03/11 01:06:47;;;;;;;17.48;10.15;;;3.70;99.90;;;;;;5038790;28;20132;-72
2022/03/11 01:09:12;;;;;;;15.93;9.23;;;3.60;99.90;;;;;;5067203;28;20050;-73
2022/03/11 01:11:38;;;;;;;14.90;9.32;;;3.60;99.90;;;;;;5070793;28;20069;-72
2022/03/11 01:14:05;;;;;;;18.13;9.68;;;3.50;99.90;;;;;;5022803;28;20107;-72
2022/03/11 01:16:30;;;;;;;16.10;9.70;;;3.50;99.90;;;;;;5056750;28;20049;-72
2022/03/11 01:18:56;;;;;;;13.43;8.95;;;3.40;99.90;;;;;;5056132;28;20041;-72
2022/03/11 01:21:21;;;;;;;13.18;8.15;;;3.40;99.90;;;;;;5039188;28;20056;-72
2022/03/11 01:23:47;;;;;;;18.15;8.93;;;3.40;99.90;;;;;;5056915;28;20057;-74
2022/03/11 01:26:13;;;;;;;15.43;8.68;;;4.00;99.90;;;;;;5038929;28;20120;-71
2022/03/11 01:28:41;;;;;;;13.98;9.38;;;3.30;99.90;;;;;;5056530;28;20524;-72
2022/03/11 01:31:11;;;;;;;16.52;10.23;;;3.30;99.90;;;;;;5056266;28;20087;-72
2022/03/11 01:33:38;;;;;;;15.85;9.68;;;3.30;99.90;;;;;;5056761;28;20052;-73
2022/03/11 01:36:05;;;;;;;16.10;9.60;;;3.30;99.90;;;;;;5056605;28;20045;-72
2022/03/11 01:38:31;;;;;;;15.55;9.65;;;3.30;99.90;;;;;;5066101;28;20041;-73
2022/03/11 01:40:56;;;;;;;16.67;9.75;;;3.30;99.90;;;;;;5076237;28;20048;-72
2022/03/11 01:43:22;;;;;;;14.85;9.32;;;3.30;99.90;;;;;;5024223;28;20056;-73
2022/03/11 01:45:47;;;;;;;17.63;10.25;;;3.20;99.90;;;;;;5058743;28;20044;-72
2022/03/11 01:48:13;;;;;;;18.48;10.98;;;3.10;99.90;;;;;;5076235;28;20040;-74
2022/03/11 01:50:40;;;;;;;17.35;10.57;;;3.20;99.90;;;;;;5076165;28;20095;-73
2022/03/11 01:53:08;;;;;;;17.23;10.57;;;3.10;99.90;;;;;;5058089;28;20084;-74
2022/03/11 01:55:34;;;;;;;17.30;10.02;;;3.10;99.90;;;;;;5024079;28;20052;-73
2022/03/11 01:57:59;;;;;;;18.08;10.73;;;3.10;99.90;;;;;;5075739;28;20044;-74
2022/03/11 02:00:25;;;;;;;20.13;10.82;;;3.10;99.90;;;;;;5076076;28;20048;-73
2022/03/11 02:02:51;;;;;;;19.85;10.93;;;3.00;99.90;;;;;;5058730;28;20064;-72
2022/03/11 02:05:17;;;;;;;18.10;11.48;;;3.00;99.90;;;;;;5075788;28;20048;-72
2022/03/11 02:07:43;;;;;;;17.63;11.40;;;3.00;99.90;;;;;;5054202;28;20079;-73
2022/03/11 02:10:09;;;;;;;17.42;11.25;;;3.00;99.90;;;;;;5061823;28;20476;-72
2022/03/11 02:12:35;;;;;;;20.70;12.95;;;3.00;99.90;;;;;;5058144;28;20051;-73
2022/03/11 02:15:02;;;;;;;20.73;11.93;;;3.00;99.90;;;;;;5076025;28;20460;-71
2022/03/11 02:17:27;;;;;;;21.08;13.00;;;3.00;99.90;;;;;;5057451;28;20052;-72
2022/03/11 02:19:53;;;;;;;28.77;13.45;;;2.90;99.90;;;;;;5075643;28;20049;-73
2022/03/11 02:22:22;;;;;;;20.92;13.20;;;2.90;99.90;;;;;;5058133;28;20117;-73
2022/03/11 02:24:47;;;;;;;21.25;13.55;;;2.90;99.90;;;;;;5041273;28;20465;-73
2022/03/11 02:27:13;;;;;;;20.05;11.80;;;2.80;99.90;;;;;;5057894;28;20051;-72
2022/03/11 02:29:38;;;;;;;20.80;13.43;;;2.90;99.90;;;;;;5075360;28;20101;-72
2022/03/11 02:32:04;;;;;;;26.67;14.63;;;2.90;99.90;;;;;;5073548;28;20465;-71
2022/03/11 02:34:30;;;;;;;19.50;13.48;;;2.90;99.90;;;;;;5075184;28;20103;-73
2022/03/11 02:36:55;;;;;;;24.48;14.27;;;2.90;99.90;;;;;;5057857;28;20084;-72
2022/03/11 02:39:21;;;;;;;23.23;14.15;;;2.90;99.90;;;;;;5075396;28;20044;-71
2022/03/11 02:41:49;;;;;;;21.85;13.90;;;2.80;99.90;;;;;;5075006;28;20040;-73
2022/03/11 02:44:15;;;;;;;21.85;14.07;;;2.80;99.90;;;;;;5057778;28;20056;-73
2022/03/11 02:46:41;;;;;;;23.15;14.38;;;2.80;99.90;;;;;;5057563;28;20062;-73
2022/03/11 02:49:06;;;;;;;24.58;14.77;;;2.90;99.90;;;;;;5074937;28;20048;-74
2022/03/11 02:51:32;;;;;;;30.00;16.83;;;2.80;99.90;;;;;;5075332;28;20497;-74
2022/03/11 02:53:57;;;;;;;23.90;15.40;;;2.80;99.90;;;;;;5057378;28;20058;-72
2022/03/11 02:56:23;;;;;;;26.65;16.42;;;2.80;99.90;;;;;;5074942;28;20357;-72
2022/03/11 02:58:49;;;;;;;27.67;16.85;;;2.80;99.90;;;;;;5056968;28;20055;-73
2022/03/11 03:01:14;;;;;;;26.95;16.63;;;2.90;99.90;;;;;;5057495;28;20468;-72
2022/03/11 03:03:40;;;;;;;29.90;16.58;;;2.80;99.90;;;;;;5059565;28;20373;-71
2022/03/11 03:06:06;;;;;;;27.27;16.63;;;2.80;99.90;;;;;;5054625;28;20092;-72
2022/03/11 03:08:32;;;;;;;25.48;17.33;;;2.80;99.90;;;;;;5037152;28;20458;-72
2022/03/11 03:10:57;;;;;;;27.15;17.63;;;2.90;99.90;;;;;;5037183;28;20044;-73
2022/03/11 03:13:23;;;;;;;28.35;18.00;;;2.70;99.90;;;;;;5038005;28;20121;-73
2022/03/11 03:15:49;;;;;;;29.88;18.13;;;2.70;99.90;;;;;;5037441;28;20191;-74
2022/03/11 03:18:15;;;;;;;25.23;16.55;;;3.20;99.90;;;;;;5036821;28;20485;-72
2022/03/11 03:20:41;;;;;;;32.92;18.92;;;2.60;99.90;;;;;;5054295;28;20474;-74
2022/03/11 03:23:07;;;;;;;33.03;19.45;;;2.60;99.90;;;;;;5054461;28;20108;-73
2022/03/11 03:25:32;;;;;;;27.42;17.77;;;2.60;99.90;;;;;;5036872;28;20085;-72
2022/03/11 03:27:58;;;;;;;31.02;18.33;;;2.50;99.90;;;;;;5037744;28;20049;-72
2022/03/11 03:30:24;;;;;;;32.88;19.02;;;2.50;99.90;;;;;;5058494;28;20055;-72
2022/03/11 03:32:49;;;;;;;28.92;19.20;;;2.50;99.90;;;;;;5051422;28;20048;-71
2022/03/11 03:35:15;;;;;;;32.60;19.35;;;2.50;99.90;;;;;;5078558;28;20475;-74
2022/03/11 03:37:41;;;;;;;30.70;19.05;;;2.50;99.90;;;;;;5060671;28;20036;-72
2022/03/11 03:40:08;;;;;;;32.00;20.58;;;2.50;99.90;;;;;;5061444;28;20403;-72
2022/03/11 03:42:34;;;;;;;32.33;21.67;;;2.50;99.90;;;;;;5061237;28;20048;-72
2022/03/11 03:45:00;;;;;;;29.45;19.67;;;2.50;99.90;;;;;;5061165;28;20396;-72
2022/03/11 03:47:25;;;;;;;30.98;19.80;;;3.00;99.90;;;;;;5061484;28;20059;-74
2022/03/11 03:49:51;;;;;;;32.20;19.95;;;2.50;99.90;;;;;;5078152;28;20411;-73
2022/03/11 03:52:17;;;;;;;36.38;20.60;;;2.50;99.90;;;;;;5077918;28;20499;-73
2022/03/11 03:54:44;;;;;;;36.53;21.05;;;2.50;99.90;;;;;;5061158;28;20091;-74
2022/03/11 03:57:10;;;;;;;33.30;19.73;;;2.50;99.90;;;;;;5060522;28;20095;-74
2022/03/11 03:59:35;;;;;;;30.27;18.90;;;2.40;99.90;;;;;;5078204;28;20492;-72
2022/03/11 04:02:02;;;;;;;36.60;22.27;;;2.40;99.90;;;;;;5075759;28;20350;-72
2022/03/11 04:04:28;;;;;;;34.30;21.10;;;2.40;99.90;;;;;;5064740;28;20033;-74
2022/03/11 04:06:53;;;;;;;36.15;20.65;;;2.40;99.90;;;;;;5060638;28;20052;-73
2022/03/11 04:09:19;;;;;;;41.67;21.52;;;2.40;99.90;;;;;;5077948;28;20139;-73
2022/03/11 04:11:44;;;;;;;34.13;20.52;;;2.50;99.90;;;;;;5078319;28;20456;-73
2022/03/11 04:14:11;;;;;;;32.10;20.02;;;2.40;99.90;;;;;;5077961;28;20044;-73
2022/03/11 04:16:36;;;;;;;42.08;22.10;;;2.40;99.90;;;;;;5077788;28;20044;-74
2022/03/11 04:19:02;;;;;;;34.53;19.20;;;2.30;99.90;;;;;;5060333;28;20070;-74
2022/03/11 04:21:28;;;;;;;34.60;18.85;;;2.30;99.90;;;;;;5077666;28;20131;-73
2022/03/11 04:23:53;;;;;;;31.25;20.95;;;2.30;99.90;;;;;;5060578;28;20106;-73
2022/03/11 04:26:19;;;;;;;35.20;21.42;;;2.30;99.90;;;;;;5060611;28;20040;-72
2022/03/11 04:28:44;;;;;;;34.97;19.98;;;2.20;99.90;;;;;;5077755;28;20052;-72
2022/03/11 04:31:12;;;;;;;33.63;21.13;;;2.20;99.90;;;;;;5060203;28;20087;-72
2022/03/11 04:33:39;;;;;;;32.70;22.08;;;2.20;99.90;;;;;;5060721;28;20049;-74
2022/03/11 04:36:06;;;;;;;38.38;21.92;;;2.20;99.90;;;;;;5057690;28;20087;-74
2022/03/11 04:38:32;;;;;;;35.97;22.48;;;2.20;99.90;;;;;;5056370;28;20044;-72
2022/03/11 04:40:57;;;;;;;34.92;20.95;;;2.10;99.90;;;;;;5055351;28;20461;-74
2022/03/11 04:43:23;;;;;;;36.55;22.55;;;2.00;99.90;;;;;;5039856;28;20148;-71
2022/03/11 04:45:49;;;;;;;35.30;21.80;;;2.00;99.90;;;;;;5057555;28;20049;-74
2022/03/11 04:48:15;;;;;;;33.67;20.88;;;2.00;99.90;;;;;;5057396;28;20045;-72
2022/03/11 04:50:40;;;;;;;33.13;22.02;;;2.00;99.90;;;;;;5023251;28;20128;-72
2022/03/11 04:53:06;;;;;;;37.17;23.30;;;2.00;99.90;;;;;;5056929;28;20346;-72
2022/03/11 04:55:32;;;;;;;34.05;22.02;;;2.00;99.90;;;;;;5040098;28;20377;-74
2022/03/11 04:57:58;;;;;;;34.38;22.00;;;1.90;99.90;;;;;;5039351;28;20045;-72
2022/03/11 05:00:23;;;;;;;36.13;23.25;;;1.90;99.90;;;;;;5057221;28;20041;-73
2022/03/11 05:02:49;;;;;;;36.33;22.23;;;1.80;99.90;;;;;;5057199;28;20052;-72
2022/03/11 05:05:15;;;;;;;35.38;20.70;;;1.80;99.90;;;;;;5039450;28;20143;-72
2022/03/11 05:07:42;;;;;;;37.65;22.30;;;1.80;99.90;;;;;;5057501;28;20357;-73
2022/03/11 05:10:14;;;;;;;35.72;22.58;;;1.80;99.90;;;;;;5040095;28;20051;-73
2022/03/11 05:12:40;;;;;;;35.22;22.17;;;1.70;99.90;;;;;;5039494;28;20052;-73
2022/03/11 05:15:07;;;;;;;35.42;21.27;;;1.70;99.90;;;;;;5056960;28;20055;-73
2022/03/11 05:17:33;;;;;;;33.63;21.25;;;1.60;99.90;;;;;;5038716;28;20041;-73
2022/03/11 05:19:59;;;;;;;34.38;22.25;;;1.60;99.90;;;;;;5056618;28;20049;-72
2022/03/11 05:22:25;;;;;;;37.67;22.05;;;1.60;99.90;;;;;;5056753;28;20125;-73
2022/03/11 05:24:51;;;;;;;36.20;22.67;;;1.70;99.90;;;;;;5056907;28;20052;-72
2022/03/11 05:27:16;;;;;;;37.45;22.80;;;1.70;99.90;;;;;;5056588;28;20041;-73
2022/03/11 05:29:42;;;;;;;39.53;22.92;;;1.70;99.90;;;;;;5056471;28;20079;-73
2022/03/11 05:32:10;;;;;;;34.00;21.63;;;1.70;99.90;;;;;;5045321;28;20360;-71
2022/03/11 05:34:39;;;;;;;37.60;22.50;;;1.70;99.90;;;;;;5067853;28;20468;-73
2022/03/11 05:37:06;;;;;;;35.10;20.88;;;1.60;99.90;;;;;;5060655;28;20122;-72
2022/03/11 05:39:33;;;;;;;35.67;22.92;;;1.60;99.90;;;;;;5058550;28;20075;-72
2022/03/11 05:41:59;;;;;;;36.20;22.50;;;1.60;99.90;;;;;;5077971;28;20040;-72
2022/03/11 05:44:25;;;;;;;36.70;23.60;;;1.50;99.90;;;;;;5059116;28;20118;-73
2022/03/11 05:46:52;;;;;;;41.95;23.50;;;1.50;99.90;;;;;;5044133;28;20033;-74
2022/03/11 05:49:18;;;;;;;34.33;19.67;;;1.50;99.90;;;;;;5037645;28;20043;-73
2022/03/11 05:51:43;;;;;;;33.53;21.08;;;1.60;99.90;;;;;;5054941;28;20036;-75
2022/03/11 05:54:09;;;;;;;36.10;21.42;;;1.60;99.90;;;;;;5043465;28;20135;-73
2022/03/11 05:56:34;;;;;;;35.45;21.67;;;1.60;99.90;;;;;;5055248;28;20041;-74
2022/03/11 05:59:01;;;;;;;37.08;22.42;;;1.70;99.90;;;;;;5055938;28;20060;-73
2022/03/11 06:01:26;;;;;;;33.85;20.48;;;1.60;99.90;;;;;;5055945;28;20086;-74
2022/03/11 06:03:52;;;;;;;35.88;23.60;;;1.60;99.90;;;;;;5049754;28;20080;-72
2022/03/11 06:06:18;;;;;;;33.25;21.35;;;1.60;99.90;;;;;;5041544;28;20048;-71
2022/03/11 06:08:44;;;;;;;34.88;22.40;;;1.60;99.90;;;;;;5058507;28;20059;-71
2022/03/11 06:11:09;;;;;;;34.30;21.42;;;1.60;99.90;;;;;;5075646;28;20052;-74
2022/03/11 06:13:36;;;;;;;33.45;20.85;;;1.60;99.90;;;;;;5041590;28;20056;-73
2022/03/11 06:16:02;;;;;;;40.20;22.42;;;1.60;99.90;;;;;;5057933;28;20041;-73
2022/03/11 06:18:28;;;;;;;34.28;22.45;;;1.60;99.90;;;;;;5014080;28;20127;-74
2022/03/11 06:20:56;;;;;;;35.63;21.80;;;2.00;99.90;;;;;;5066271;28;20131;-74
2022/03/11 06:23:22;;;;;;;32.53;21.35;;;1.70;99.90;;;;;;5058113;28;20052;-73
2022/03/11 06:25:48;;;;;;;35.75;20.80;;;1.80;99.90;;;;;;5041484;28;20079;-73
2022/03/11 06:28:13;;;;;;;33.90;21.70;;;1.70;99.90;;;;;;5058108;28;20187;-72
2022/03/11 06:30:39;;;;;;;31.85;20.90;;;1.80;99.90;;;;;;5075279;28;20055;-73
2022/03/11 06:33:06;;;;;;;32.42;20.17;;;1.80;99.90;;;;;;5039411;28;20044;-74
2022/03/11 06:35:32;;;;;;;35.40;21.25;;;1.80;99.90;;;;;;5053298;28;20382;-72
2022/03/11 06:37:58;;;;;;;35.53;20.83;;;1.80;99.90;;;;;;5054643;28;20048;-73
2022/03/11 06:40:24;;;;;;;36.72;21.08;;;1.90;99.90;;;;;;5037096;28;20049;-72
2022/03/11 06:42:50;;;;;;;38.65;21.10;;;1.90;99.90;;;;;;5034866;28;20047;-72
2022/03/11 06:45:18;;;;;;;35.40;21.30;;;2.00;99.90;;;;;;5037323;28;20048;-71
2022/03/11 06:47:45;;;;;;;32.47;21.33;;;2.00;99.90;;;;;;5054561;28;20457;-71
2022/03/11 06:50:11;;;;;;;32.05;20.40;;;2.10;99.90;;;;;;5054811;28;20107;-73
2022/03/11 06:52:37;;;;;;;31.60;20.15;;;2.10;99.90;;;;;;5037308;28;20461;-70
2022/03/11 06:55:04;;;;;;;32.42;19.85;;;2.20;99.90;;;;;;5054987;28;20064;-71
2022/03/11 06:57:30;;;;;;;34.33;20.33;;;2.20;99.90;;;;;;5045824;28;20136;-71
2022/03/11 06:59:56;;;;;;;34.20;20.10;;;2.20;99.90;;;;;;5042183;28;20075;-73
2022/03/11 07:02:22;;;;;;;30.30;19.33;;;2.20;99.90;;;;;;5057532;28;20045;-71
2022/03/11 07:04:47;;;;;;;32.78;21.58;;;2.30;99.90;;;;;;5053942;28;20051;-74
2022/03/11 07:07:13;;;;;;;33.40;18.58;;;2.40;99.90;;;;;;5074937;28;20459;-73
2022/03/11 07:09:38;;;;;;;30.83;20.88;;;2.50;99.90;;;;;;5074801;28;20045;-74
2022/03/11 07:12:05;;;;;;;31.25;20.60;;;2.60;99.90;;;;;;5057269;28;20056;-73
2022/03/11 07:14:35;;;;;;;33.08;20.50;;;2.70;99.90;;;;;;5074488;28;20041;-72
2022/03/11 07:17:02;;;;;;;31.95;20.30;;;2.80;99.90;;;;;;5074086;28;20195;-73
2022/03/11 07:19:27;;;;;;;32.42;19.95;;;2.90;99.90;;;;;;5074503;28;20334;-72
2022/03/11 07:21:54;;;;;;;28.38;19.50;;;2.90;99.90;;;;;;5057059;28;20063;-73
2022/03/11 07:24:19;;;;;;;27.70;18.23;;;3.00;99.90;;;;;;5074768;28;20049;-73
2022/03/11 07:26:45;;;;;;;29.35;19.80;;;3.10;99.90;;;;;;5056544;28;20464;-73
2022/03/11 07:29:11;;;;;;;29.25;18.75;;;3.20;99.90;;;;;;5019958;28;20120;-72
2022/03/11 07:31:36;;;;;;;29.27;18.95;;;3.30;99.90;;;;;;5037046;28;20041;-74
2022/03/11 07:34:02;;;;;;;27.05;16.30;;;3.40;99.90;;;;;;5054751;28;20115;-73
2022/03/11 07:36:28;;;;;;;32.97;19.20;;;3.50;99.90;;;;;;5036798;28;20088;-72
2022/03/11 07:38:54;;;;;;;30.65;17.73;;;3.50;99.90;;;;;;5054458;28;20057;-73
2022/03/11 07:41:20;;;;;;;28.73;18.23;;;3.60;99.90;;;;;;5037087;28;20103;-73
2022/03/11 07:43:46;;;;;;;38.60;18.35;;;3.70;99.90;;;;;;5036806;28;20087;-76
2022/03/11 07:46:14;;;;;;;34.83;19.58;;;3.80;99.90;;;;;;5036374;28;20076;-73
2022/03/11 07:48:40;;;;;;;32.28;18.25;;;3.80;99.90;;;;;;5037590;28;20338;-71
2022/03/11 07:51:06;;;;;;;26.05;17.25;;;3.90;99.90;;;;;;5054274;28;20060;-73
2022/03/11 07:53:32;;;;;;;28.85;17.35;;;4.00;99.90;;;;;;5037062;28;20045;-73
2022/03/11 07:55:57;;;;;;;29.73;17.95;;;4.00;99.90;;;;;;5054161;28;20041;-75
2022/03/11 07:58:24;;;;;;;32.65;18.92;;;4.10;99.90;;;;;;5040850;28;20048;-71
2022/03/11 08:00:50;;;;;;;30.77;19.70;;;4.10;99.90;;;;;;5017261;28;20055;-72
2022/03/11 08:03:16;;;;;;;27.98;17.63;;;4.30;99.90;;;;;;5017578;28;20053;-72
2022/03/11 08:05:42;;;;;;;29.70;18.70;;;4.30;99.90;;;;;;5034413;28;20048;-72
2022/03/11 08:08:08;;;;;;;28.23;18.08;;;4.40;99.90;;;;;;5034265;28;20049;-73
2022/03/11 08:10:36;;;;;;;38.15;18.83;;;4.50;99.90;;;;;;5034289;28;20046;-71
2022/03/11 08:13:02;;;;;;;26.38;15.82;;;4.50;99.90;;;;;;5033830;28;20053;-73
2022/03/11 08:15:27;;;;;;;29.35;18.70;;;4.50;99.90;;;;;;5035885;28;20045;-73
2022/03/11 08:17:53;;;;;;;28.85;17.10;;;4.60;99.90;;;;;;5037708;28;20053;-74
2022/03/11 08:20:18;;;;;;;28.83;18.17;;;4.60;99.90;;;;;;5020453;28;20136;-73
2022/03/11 08:22:50;;;;;;;25.95;16.85;;;4.70;99.90;;;;;;5020487;28;20046;-75
2022/03/11 08:25:16;;;;;;;26.67;18.55;;;4.80;99.90;;;;;;5020566;28;20472;-72
2022/03/11 08:27:42;;;;;;;28.40;15.98;;;4.90;99.90;;;;;;5046725;28;20365;-73
2022/03/11 08:30:09;;;;;;;27.58;17.70;;;4.90;99.90;;;;;;5057112;28;20488;-72
2022/03/11 08:32:36;;;;;;;29.92;18.05;;;5.00;99.90;;;;;;5037213;28;20461;-73
2022/03/11 08:35:02;;;;;;;27.70;18.10;;;5.10;99.90;;;;;;5039982;28;20115;-73
2022/03/11 08:37:28;;;;;;;26.83;18.33;;;5.10;99.90;;;;;;5039713;28;20188;-72
2022/03/11 08:39:54;;;;;;;29.27;18.08;;;5.20;99.90;;;;;;5040082;28;20263;-73
2022/03/11 08:42:19;;;;;;;33.75;17.00;;;5.20;99.90;;;;;;5039697;28;20063;-73
2022/03/11 08:44:45;;;;;;;29.48;17.23;;;5.30;99.90;;;;;;5057019;28;20045;-72
2022/03/11 08:47:12;;;;;;;28.35;18.13;;;5.30;99.90;;;;;;5039917;28;20462;-72
2022/03/11 08:49:37;;;;;;;26.63;17.20;;;5.40;99.90;;;;;;5023241;28;20045;-73
2022/03/11 08:52:03;;;;;;;29.00;16.45;;;5.40;99.90;;;;;;5057323;28;20091;-72
2022/03/11 08:54:29;;;;;;;28.15;17.58;;;5.50;99.90;;;;;;5057126;28;20111;-72
2022/03/11 08:56:55;;;;;;;30.05;18.65;;;5.60;99.90;;;;;;5036119;28;20388;-73
2022/03/11 08:59:21;;;;;;;27.50;15.90;;;5.70;99.90;;;;;;5036979;28;20084;-73
2022/03/11 09:01:47;;;;;;;30.90;18.17;;;5.70;99.90;;;;;;5020061;28;20045;-73
2022/03/11 09:04:13;;;;;;;28.33;17.83;;;5.70;99.90;;;;;;5002978;28;20049;-74
2022/03/11 09:06:38;;;;;;;29.90;16.90;;;5.80;99.90;;;;;;5019306;28;20042;-73
2022/03/11 09:09:04;;;;;;;24.88;15.80;;;5.80;99.90;;;;;;5019379;28;20049;-74
2022/03/11 09:11:32;;;;;;;29.38;18.15;;;5.90;99.90;;;;;;5036530;28;20361;-74
2022/03/11 09:13:58;;;;;;;28.48;16.35;;;5.90;99.90;;;;;;5019580;28;20049;-74
2022/03/11 09:16:23;;;;;;;26.10;16.90;;;6.00;99.90;;;;;;5003595;28;20060;-74
2022/03/11 09:18:49;;;;;;;28.73;16.92;;;6.00;99.90;;;;;;5036748;28;20111;-73
2022/03/11 09:21:15;;;;;;;26.67;17.42;;;6.00;99.90;;;;;;5019831;28;20187;-72
2022/03/11 09:23:42;;;;;;;30.88;17.23;;;6.10;99.90;;;;;;5019365;28;20052;-74
2022/03/11 09:26:07;;;;;;;27.35;18.13;;;6.20;99.90;;;;;;5036372;28;20041;-75
2022/03/11 09:28:33;;;;;;;27.48;16.40;;;6.20;99.90;;;;;;5051822;28;20033;-73
2022/03/11 09:31:01;;;;;;;25.75;15.75;;;6.30;99.90;;;;;;5038835;28;20534;-72
2022/03/11 09:33:26;;;;;;;25.67;16.73;;;6.40;99.90;;;;;;5039487;28;20102;-75
2022/03/11 09:35:52;;;;;;;27.90;17.63;;;6.40;99.90;;;;;;5056438;28;20053;-75
2022/03/11 09:38:18;;;;;;;27.83;17.88;;;6.50;99.90;;;;;;5038877;28;20060;-74
2022/03/11 09:40:45;;;;;;;27.83;17.27;;;6.60;99.90;;;;;;5054983;28;20141;-73
2022/03/11 09:43:12;;;;;;;25.60;16.58;;;6.60;99.90;;;;;;5056320;28;20053;-74
2022/03/11 09:45:38;;;;;;;27.63;16.98;;;6.70;99.90;;;;;;5056187;28;20102;-73
2022/03/11 09:48:05;;;;;;;27.35;18.00;;;6.80;99.90;;;;;;5038876;28;20059;-74
2022/03/11 09:50:31;;;;;;;27.15;17.13;;;6.80;99.90;;;;;;5056490;28;20392;-73
2022/03/11 09:52:57;;;;;;;27.33;17.40;;;6.90;99.90;;;;;;5056238;28;20037;-72
2022/03/11 09:55:24;;;;;;;27.10;15.98;;;7.00;99.90;;;;;;5055840;28;20064;-72
2022/03/11 09:57:49;;;;;;;30.23;17.25;;;7.00;99.90;;;;;;5028323;28;20195;-73
2022/03/11 10:00:16;;;;;;;30.45;18.67;;;7.40;99.90;;;;;;5036195;28;20132;-72
2022/03/11 10:02:45;;;;;;;27.33;16.48;;;7.10;99.90;;;;;;5036073;28;20326;-73
2022/03/11 10:05:11;;;;;;;28.05;15.82;;;7.10;99.90;;;;;;5019811;28;20485;-74
2022/03/11 10:07:36;;;;;;;25.55;15.68;;;7.20;99.90;;;;;;5038287;28;20059;-74
2022/03/11 10:10:31;;;;;;;28.67;17.30;;;7.30;99.90;;;;;;5055664;28;20060;-73
2022/03/11 10:12:57;;;;;;;27.63;17.10;;;7.40;99.90;;;;;;5023414;28;20057;-73
2022/03/11 10:15:28;;;;;;;28.05;18.27;;;7.40;99.90;;;;;;5055815;28;20477;-73
2022/03/11 10:17:54;;;;;;;25.67;17.08;;;7.50;99.90;;;;;;5055431;28;20040;-75
2022/03/11 10:20:20;;;;;;;29.48;16.50;;;7.60;99.90;;;;;;5043592;28;20049;-73
2022/03/11 10:22:46;;;;;;;27.23;17.08;;;7.70;99.90;;;;;;5035278;28;20053;-74
2022/03/11 10:25:25;;;;;;;28.52;16.33;;;7.80;99.90;;;;;;5035769;28;20081;-73
2022/03/11 10:27:57;;;;;;;26.63;15.52;;;7.80;99.90;;;;;;5039277;28;20057;-74
2022/03/11 10:30:23;;;;;;;28.60;17.85;;;7.90;99.90;;;;;;5018095;28;20069;-73
2022/03/11 10:32:51;;;;;;;29.45;18.35;;;7.90;99.90;;;;;;5018010;28;20500;-73
2022/03/11 10:35:18;;;;;;;29.05;15.82;;;8.00;99.90;;;;;;5035272;28;21177;-73
2022/03/11 10:38:07;;;;;;;26.60;17.60;;;8.10;99.90;;;;;;5017902;28;20057;-73
2022/03/11 10:40:34;;;;;;;27.80;17.25;;;8.20;99.90;;;;;;5017771;28;20113;-72
2022/03/11 10:43:17;;;;;;;26.30;16.85;;;8.30;99.90;;;;;;5017787;28;20422;-72
2022/03/11 10:46:01;;;;;;;24.13;17.40;;;8.30;99.90;;;;;;5034781;28;20052;-74
2022/03/11 10:48:51;;;;;;;25.38;17.38;;;8.50;99.90;;;;;;5035168;28;20041;-73
2022/03/11 10:51:27;;;;;;;26.27;17.73;;;8.50;99.80;;;;;;5035198;28;20057;-73
2022/03/11 10:53:54;;;;;;;25.58;17.35;;;8.60;99.90;;;;;;5034918;28;20366;-72
2022/03/11 10:56:29;;;;;;;28.67;17.73;;;8.60;99.10;;;;;;5034858;28;20061;-73
2022/03/11 10:58:57;;;;;;;28.55;17.15;;;8.70;99.40;;;;;;4998562;28;20081;-72
2022/03/11 11:01:40;;;;;;;26.08;16.27;;;8.80;98.30;;;;;;5015134;28;20085;-73
2022/03/11 11:04:11;;;;;;;27.63;17.65;;;8.90;98.60;;;;;;5015208;28;20057;-75
2022/03/11 11:06:37;;;;;;;27.52;17.80;;;8.90;99.30;;;;;;5015011;28;20048;-73
2022/03/11 11:09:04;;;;;;;26.52;17.48;;;9.00;99.80;;;;;;4998400;28;20053;-72
2022/03/11 11:11:31;;;;;;;26.77;16.98;;;9.10;99.00;;;;;;5015077;28;20077;-74
2022/03/11 11:13:58;;;;;;;30.52;17.13;;;9.10;96.10;;;;;;4995113;28;20068;-74
2022/03/11 11:16:27;;;;;;;28.25;17.33;;;9.20;97.60;;;;;;5015174;28;20156;-73
2022/03/11 11:18:58;;;;;;;28.38;17.05;;;9.20;96.10;;;;;;4981361;28;20107;-73
2022/03/11 11:21:25;;;;;;;24.77;16.77;;;9.20;96.00;;;;;;4979059;28;20053;-73
2022/03/11 11:23:55;;;;;;;22.48;16.20;;;9.20;97.10;;;;;;4997629;28;20062;-72
2022/03/11 11:26:25;;;;;;;29.55;17.95;;;9.30;97.30;;;;;;5014974;28;20046;-73
2022/03/11 11:28:57;;;;;;;27.60;16.67;;;9.30;95.40;;;;;;5035879;28;20134;-73
2022/03/11 11:31:24;;;;;;;25.02;16.88;;;9.40;98.40;;;;;;5034580;28;20045;-72
2022/03/11 11:33:50;;;;;;;23.33;16.60;;;9.40;96.70;;;;;;5034597;28;20091;-73
2022/03/11 11:36:35;;;;;;;24.33;16.45;;;9.50;95.70;;;;;;5001636;28;20045;-74
2022/03/11 11:39:05;;;;;;;25.10;14.63;;;9.60;95.00;;;;;;5034598;28;20434;-74
2022/03/11 11:41:33;;;;;;;27.05;16.67;;;9.60;95.90;;;;;;5017110;28;20103;-73
2022/03/11 11:44:08;;;;;;;23.80;15.82;;;9.80;95.90;;;;;;5034456;28;20046;-73
2022/03/11 11:46:36;;;;;;;21.13;15.02;;;9.80;95.10;;;;;;5017424;28;20565;-73
2022/03/11 11:49:07;;;;;;;24.88;15.88;;;9.90;94.70;;;;;;5017192;28;20080;-74
2022/03/11 11:51:36;;;;;;;27.10;16.65;;;10.00;93.00;;;;;;5038212;28;20044;-71
2022/03/11 11:54:10;;;;;;;22.88;15.05;;;10.10;91.80;;;;;;5038428;28;20347;-72
2022/03/11 11:56:44;;;;;;;25.02;15.73;;;10.00;91.20;;;;;;5038273;28;20041;-72
2022/03/11 11:59:09;;;;;;;;;;;10.10;92.60;;;;;;5038837;28;20049;-74
2022/03/11 12:01:46;;;;;;;26.13;16.00;;;10.20;90.90;;;;;;5038241;28;20296;-73
2022/03/11 12:04:17;;;;;;;31.15;16.40;;;10.30;93.10;;;;;;5038523;28;20173;-73
2022/03/11 12:07:09;;;;;;;20.75;14.95;;;10.20;90.10;;;;;;5034128;28;20059;-74
2022/03/11 12:09:45;;;;;;;22.33;15.05;;;10.30;94.20;;;;;;5024346;28;20056;-72
2022/03/11 12:14:57;;;;;;;21.73;14.95;;;10.30;84.00;;;;;;5040577;28;20422;-72
2022/03/11 12:17:46;;;;;;;23.40;14.40;;;10.40;88.70;;;;;;5040056;28;20060;-73
2022/03/11 12:20:34;;;;;;;21.77;14.82;;;10.40;86.40;;;;;;5044329;28;20052;-74
2022/03/11 12:23:12;;;;;;;23.00;15.63;;;10.60;85.00;;;;;;5077864;28;20044;-73
2022/03/11 12:25:39;;;;;;;21.48;15.27;;;10.70;88.40;;;;;;5060130;28;20479;-73
2022/03/11 12:28:06;;;;;;;22.05;14.55;;;10.70;79.10;;;;;;5060927;28;20373;-73
2022/03/11 12:30:39;;;;;;;23.13;13.40;;;10.80;83.70;;;;;;5077537;28;20051;-73
2022/03/11 12:33:11;;;;;;;21.10;14.95;;;10.90;85.50;;;;;;5060385;28;20487;-74
2022/03/11 12:35:37;;;;;;;24.30;14.15;;;10.90;78.90;;;;;;5034936;28;20132;-74
2022/03/11 12:38:05;;;;;;;19.55;13.93;;;11.00;78.10;;;;;;5057569;28;20045;-75
2022/03/11 12:40:31;;;;;;;20.50;13.68;;;11.10;81.70;;;;;;5040250;28;20056;-73